createdAt,value
2019-05-07T00:00:53.095Z,8.00
2019-05-07T00:01:55.002Z,8.00
2019-05-07T00:03:46.573Z,8.00
2019-05-07T00:04:46.559Z,8.00
2019-05-07T00:06:43.295Z,8.00
2019-05-07T00:07:42.508Z,8.00
2019-05-07T00:09:35.291Z,8.00
2019-05-07T00:10:35.268Z,8.00
2019-05-07T00:12:29.675Z,8.00
2019-05-07T00:13:29.621Z,8.00
2019-05-07T00:15:23.985Z,8.00
2019-05-07T00:16:23.970Z,8.00
2019-05-07T00:18:18.368Z,8.00
2019-05-07T00:19:18.324Z,8.00
2019-05-07T00:21:12.775Z,8.00
2019-05-07T00:22:12.717Z,8.00
2019-05-07T00:24:07.068Z,8.00
2019-05-07T00:25:07.015Z,8.00
2019-05-07T00:27:02.833Z,8.00
2019-05-07T00:28:02.737Z,8.00
2019-05-07T00:29:55.763Z,8.00
2019-05-07T00:30:55.719Z,8.00
2019-05-07T00:32:50.086Z,8.00
2019-05-07T00:33:52.512Z,8.00
2019-05-07T00:35:44.470Z,8.00
2019-05-07T00:36:44.430Z,8.00
2019-05-07T00:38:43.024Z,8.00
2019-05-07T00:39:43.012Z,8.00
2019-05-07T00:41:42.742Z,8.00
2019-05-07T00:42:42.185Z,8.00
2019-05-07T00:44:36.417Z,8.00
2019-05-07T00:45:36.403Z,8.00
2019-05-07T00:47:33.021Z,8.00
2019-05-07T00:48:32.636Z,8.00
2019-05-07T00:50:25.185Z,8.00
2019-05-07T00:51:25.131Z,8.00
2019-05-07T00:53:19.559Z,8.00
2019-05-07T00:54:19.487Z,8.00
2019-05-07T00:56:13.847Z,8.00
2019-05-07T00:57:13.844Z,8.00
2019-05-07T00:59:08.206Z,8.00
2019-05-07T01:00:08.190Z,8.00
2019-05-07T01:02:02.548Z,8.00
2019-05-07T01:03:03.135Z,8.00
2019-05-07T01:04:56.947Z,8.00
2019-05-07T01:05:56.899Z,8.00
2019-05-07T01:07:52.912Z,8.00
2019-05-07T01:08:52.510Z,8.00
2019-05-07T01:10:45.681Z,8.00
2019-05-07T01:11:45.642Z,8.00
2019-05-07T01:13:40.033Z,8.00
2019-05-07T01:14:41.882Z,8.00
2019-05-07T01:16:34.397Z,8.00
2019-05-07T01:17:34.360Z,8.00
2019-05-07T01:19:28.734Z,8.00
2019-05-07T01:20:28.718Z,8.00
2019-05-07T01:22:23.104Z,8.00
2019-05-07T01:23:23.213Z,8.00
2019-05-07T01:25:17.412Z,8.00
2019-05-07T01:26:17.400Z,8.00
2019-05-07T01:28:13.022Z,8.00
2019-05-07T01:29:12.505Z,8.00
2019-05-07T01:31:05.137Z,8.00
2019-05-07T01:32:05.137Z,8.00
2019-05-07T01:33:59.518Z,8.00
2019-05-07T01:34:59.467Z,8.00
2019-05-07T01:36:53.840Z,8.00
2019-05-07T01:37:53.853Z,8.00
2019-05-07T01:39:48.211Z,8.00
2019-05-07T01:40:48.167Z,8.00
2019-05-07T01:42:42.530Z,8.00
2019-05-07T01:43:43.034Z,8.00
2019-05-07T01:45:48.167Z,8.00
2019-05-07T01:46:36.868Z,8.00
2019-05-07T01:48:32.361Z,8.00
2019-05-07T01:49:32.999Z,8.00
2019-05-07T01:51:25.704Z,8.00
2019-05-07T01:52:25.560Z,8.00
2019-05-07T01:54:23.501Z,8.00
2019-05-07T01:55:19.938Z,8.00
2019-05-07T01:57:14.283Z,8.00
2019-05-07T01:58:14.265Z,8.00
2019-05-07T02:00:08.637Z,8.00
2019-05-07T02:01:08.623Z,8.00
2019-05-07T02:03:02.972Z,8.00
2019-05-07T02:04:02.975Z,8.00
2019-05-07T02:05:57.325Z,8.00
2019-05-07T02:06:57.311Z,8.00
2019-05-07T02:08:53.065Z,8.00
2019-05-07T02:09:51.944Z,8.00
2019-05-07T02:11:46.059Z,8.00
2019-05-07T02:12:46.013Z,8.00
2019-05-07T02:14:42.209Z,8.00
2019-05-07T02:15:40.363Z,8.00
2019-05-07T02:17:34.766Z,8.00
2019-05-07T02:18:34.717Z,8.00
2019-05-07T02:20:29.112Z,8.00
2019-05-07T02:21:29.061Z,8.00
2019-05-07T02:23:23.433Z,8.00
2019-05-07T02:24:23.419Z,8.00
2019-05-07T02:26:17.815Z,8.00
2019-05-07T02:27:17.769Z,8.00
2019-05-07T02:29:12.343Z,8.00
2019-05-07T02:30:14.699Z,8.00
2019-05-07T02:32:06.525Z,8.00
2019-05-07T02:33:06.473Z,8.00
2019-05-07T02:35:04.038Z,8.00
2019-05-07T02:36:03.116Z,8.00
2019-05-07T02:37:56.793Z,8.00
2019-05-07T02:38:55.174Z,8.00
2019-05-07T02:40:49.575Z,8.00
2019-05-07T02:41:49.528Z,8.00
2019-05-07T02:43:43.888Z,8.00
2019-05-07T02:44:43.982Z,8.00
2019-05-07T02:46:38.279Z,8.00
2019-05-07T02:47:38.235Z,8.00
2019-05-07T02:49:32.968Z,8.00
2019-05-07T02:50:33.114Z,8.00
2019-05-07T02:52:27.008Z,8.00
2019-05-07T02:53:26.947Z,8.00
2019-05-07T02:55:23.257Z,8.00
2019-05-07T02:56:23.608Z,8.00
2019-05-07T02:58:15.686Z,8.00
2019-05-07T02:59:15.625Z,8.00
2019-05-07T03:01:13.434Z,8.00
2019-05-07T03:02:09.976Z,8.00
2019-05-07T03:04:04.375Z,8.00
2019-05-07T03:05:05.127Z,8.00
2019-05-07T03:06:58.728Z,8.00
2019-05-07T03:07:58.677Z,8.00
2019-05-07T03:09:53.914Z,4.00
2019-05-07T03:10:53.049Z,4.00
2019-05-07T03:12:47.392Z,4.00
2019-05-07T03:13:47.381Z,8.00
2019-05-07T03:15:43.497Z,8.00
2019-05-07T03:16:47.548Z,8.00
2019-05-07T03:18:36.110Z,8.00
2019-05-07T03:19:36.091Z,12.00
2019-05-07T03:21:32.816Z,12.00
2019-05-07T03:22:33.500Z,12.00
2019-05-07T03:24:24.804Z,12.00
2019-05-07T03:25:24.819Z,16.00
2019-05-07T03:27:19.185Z,8.00
2019-05-07T03:28:19.159Z,12.00
2019-05-07T03:30:16.793Z,16.00
2019-05-07T03:31:16.839Z,16.00
2019-05-07T03:33:07.987Z,16.00
2019-05-07T03:34:07.868Z,20.00
2019-05-07T03:36:07.027Z,20.00
2019-05-07T03:37:06.094Z,24.00
2019-05-07T03:38:56.602Z,24.00
2019-05-07T03:39:56.530Z,24.00
2019-05-07T03:41:53.120Z,32.00
2019-05-07T03:42:53.464Z,36.00
2019-05-07T03:44:45.307Z,40.00
2019-05-07T03:45:45.238Z,48.00
2019-05-07T03:47:39.605Z,56.00
2019-05-07T03:48:39.591Z,60.00
2019-05-07T03:50:34.043Z,64.00
2019-05-07T03:51:33.951Z,72.00
2019-05-07T03:53:28.332Z,84.00
2019-05-07T03:54:28.300Z,84.00
2019-05-07T03:56:23.688Z,96.00
2019-05-07T03:57:23.776Z,100.00
2019-05-07T03:59:23.115Z,112.00
2019-05-07T04:00:23.862Z,120.00
2019-05-07T04:02:16.358Z,132.00
2019-05-07T04:03:19.355Z,136.00
2019-05-07T04:05:13.620Z,156.00
2019-05-07T04:06:12.755Z,168.00
2019-05-07T04:08:04.969Z,184.00
2019-05-07T04:09:04.952Z,200.00
2019-05-07T04:10:59.314Z,220.00
2019-05-07T04:11:59.300Z,224.00
2019-05-07T04:13:53.767Z,248.00
2019-05-07T04:14:53.866Z,260.00
2019-05-07T04:16:48.033Z,280.00
2019-05-07T04:17:48.022Z,296.00
2019-05-07T04:19:44.140Z,316.00
2019-05-07T04:20:43.604Z,328.00
2019-05-07T04:22:36.773Z,352.00
2019-05-07T04:23:36.725Z,368.00
2019-05-07T04:25:34.339Z,388.00
2019-05-07T04:26:33.934Z,400.00
2019-05-07T04:28:25.467Z,424.00
2019-05-07T04:29:25.415Z,428.00
2019-05-07T04:31:22.755Z,452.00
2019-05-07T04:32:19.777Z,464.00
2019-05-07T04:34:14.168Z,480.00
2019-05-07T04:35:14.125Z,492.00
2019-05-07T04:37:08.486Z,516.00
2019-05-07T04:38:08.474Z,524.00
2019-05-07T04:40:03.402Z,532.00
2019-05-07T04:41:03.766Z,540.00
2019-05-07T04:42:57.209Z,548.00
2019-05-07T04:43:57.190Z,552.00
2019-05-07T04:45:53.654Z,564.00
2019-05-07T04:46:53.306Z,576.00
2019-05-07T04:48:45.898Z,604.00
2019-05-07T04:49:45.885Z,612.00
2019-05-07T04:51:43.097Z,628.00
2019-05-07T04:52:43.364Z,636.00
2019-05-07T04:54:34.604Z,660.00
2019-05-07T04:55:34.592Z,668.00
2019-05-07T04:57:28.989Z,680.00
2019-05-07T04:58:28.945Z,684.00
2019-05-07T05:00:23.347Z,708.00
2019-05-07T05:01:23.655Z,700.00
2019-05-07T05:03:17.678Z,680.00
2019-05-07T05:04:26.904Z,676.00
2019-05-07T05:06:13.717Z,680.00
2019-05-07T05:07:13.357Z,676.00
2019-05-07T05:09:06.391Z,664.00
2019-05-07T05:10:06.367Z,668.00
2019-05-07T05:12:02.730Z,692.00
2019-05-07T05:13:03.173Z,704.00
2019-05-07T05:14:55.085Z,768.00
2019-05-07T05:15:55.080Z,800.00
2019-05-07T05:17:53.103Z,832.00
2019-05-07T05:18:51.613Z,836.00
2019-05-07T05:20:43.792Z,876.00
2019-05-07T05:21:43.782Z,892.00
2019-05-07T05:23:38.194Z,980.00
2019-05-07T05:24:38.138Z,1036.00
2019-05-07T05:26:32.659Z,1196.00
2019-05-07T05:27:32.707Z,1308.00
2019-05-07T05:28:32.496Z,1388.00
2019-05-07T05:29:32.472Z,1440.00
2019-05-07T05:30:32.753Z,1480.00
2019-05-07T05:31:33.117Z,1516.00
2019-05-07T05:32:32.528Z,1528.00
2019-05-07T05:33:32.524Z,1496.00
2019-05-07T05:34:33.012Z,1432.00
2019-05-07T05:35:32.425Z,1360.00
2019-05-07T05:36:33.128Z,1304.00
2019-05-07T05:37:32.411Z,1268.00
2019-05-07T05:38:33.086Z,1244.00
2019-05-07T05:39:32.394Z,1256.00
2019-05-07T05:40:32.386Z,1292.00
2019-05-07T05:41:34.157Z,1320.00
2019-05-07T05:42:33.028Z,1328.00
2019-05-07T05:43:32.363Z,1272.00
2019-05-07T05:44:32.371Z,1192.00
2019-05-07T05:45:33.454Z,1160.00
2019-05-07T05:46:32.344Z,1260.00
2019-05-07T05:47:32.980Z,1444.00
2019-05-07T05:48:33.314Z,1652.00
2019-05-07T05:49:32.424Z,1788.00
2019-05-07T05:50:33.121Z,1840.00
2019-05-07T05:51:32.386Z,1772.00
2019-05-07T05:52:32.882Z,1640.00
2019-05-07T05:53:32.820Z,1564.00
2019-05-07T05:54:32.287Z,1592.00
2019-05-07T05:55:32.291Z,1636.00
2019-05-07T05:56:32.495Z,1580.00
2019-05-07T05:57:32.402Z,1512.00
2019-05-07T05:58:32.573Z,1420.00
2019-05-07T05:59:47.460Z,1260.00
2019-05-07T06:00:32.806Z,1116.00
2019-05-07T06:01:32.265Z,1044.00
2019-05-07T06:02:32.443Z,1000.00
2019-05-07T06:03:32.390Z,952.00
2019-05-07T06:04:32.891Z,892.00
2019-05-07T06:05:34.264Z,848.00
2019-05-07T06:06:32.704Z,848.00
2019-05-07T06:07:32.187Z,896.00
2019-05-07T06:08:32.658Z,928.00
2019-05-07T06:09:32.828Z,904.00
2019-05-07T06:10:33.022Z,888.00
2019-05-07T06:11:32.272Z,908.00
2019-05-07T06:12:32.755Z,960.00
2019-05-07T06:13:32.407Z,1032.00
2019-05-07T06:14:33.011Z,1140.00
2019-05-07T06:15:32.748Z,1252.00
2019-05-07T06:16:32.871Z,1264.00
2019-05-07T06:17:32.249Z,1184.00
2019-05-07T06:18:32.706Z,1124.00
2019-05-07T06:19:32.796Z,1000.00
2019-05-07T06:20:32.222Z,868.00
2019-05-07T06:21:32.351Z,772.00
2019-05-07T06:22:33.061Z,744.00
2019-05-07T06:23:33.076Z,832.00
2019-05-07T06:24:32.065Z,852.00
2019-05-07T06:25:33.452Z,872.00
2019-05-07T06:26:32.049Z,888.00
2019-05-07T06:27:33.778Z,944.00
2019-05-07T06:28:33.025Z,1124.00
2019-05-07T06:29:33.003Z,1260.00
2019-05-07T06:30:33.792Z,1348.00
2019-05-07T06:31:32.711Z,1464.00
2019-05-07T06:32:32.115Z,1544.00
2019-05-07T06:33:32.501Z,1580.00
2019-05-07T06:34:34.121Z,1620.00
2019-05-07T06:35:32.532Z,1644.00
2019-05-07T06:36:32.896Z,1676.00
2019-05-07T06:37:32.189Z,1760.00
2019-05-07T06:38:32.116Z,1872.00
2019-05-07T06:39:32.791Z,1944.00
2019-05-07T06:40:33.094Z,1948.00
2019-05-07T06:41:32.301Z,1980.00
2019-05-07T06:42:33.211Z,2028.00
2019-05-07T06:43:32.540Z,2052.00
2019-05-07T06:44:32.118Z,2084.00
2019-05-07T06:45:35.136Z,2120.00
2019-05-07T06:46:32.334Z,2164.00
2019-05-07T06:47:32.034Z,2188.00
2019-05-07T06:48:42.470Z,2196.00
2019-05-07T06:49:32.508Z,2220.00
2019-05-07T06:50:32.670Z,2260.00
2019-05-07T06:51:32.868Z,2312.00
2019-05-07T06:52:32.072Z,2324.00
2019-05-07T06:53:33.431Z,2268.00
2019-05-07T06:54:32.186Z,2192.00
2019-05-07T06:55:32.523Z,2140.00
2019-05-07T06:56:32.582Z,2152.00
2019-05-07T06:57:32.990Z,2180.00
2019-05-07T06:58:32.694Z,2236.00
2019-05-07T06:59:34.270Z,2224.00
2019-05-07T07:00:32.012Z,2252.00
2019-05-07T07:01:32.441Z,2256.00
2019-05-07T07:02:32.838Z,2264.00
2019-05-07T07:03:32.792Z,2272.00
2019-05-07T07:04:33.108Z,2264.00
2019-05-07T07:05:33.018Z,2272.00
2019-05-07T07:06:32.263Z,2380.00
2019-05-07T07:07:36.534Z,2492.00
2019-05-07T07:08:32.561Z,2564.00
2019-05-07T07:09:32.934Z,2616.00
2019-05-07T07:10:32.338Z,2612.00
2019-05-07T07:11:32.043Z,2644.00
2019-05-07T07:12:33.090Z,2736.00
2019-05-07T07:13:32.271Z,2828.00
2019-05-07T07:14:33.188Z,2948.00
2019-05-07T07:15:32.157Z,3056.00
2019-05-07T07:16:32.568Z,3144.00
2019-05-07T07:17:32.608Z,3192.00
2019-05-07T07:18:32.485Z,3168.00
2019-05-07T07:19:33.135Z,3132.00
2019-05-07T07:20:32.627Z,3192.00
2019-05-07T07:21:32.688Z,3232.00
2019-05-07T07:22:32.080Z,3180.00
2019-05-07T07:23:32.372Z,3096.00
2019-05-07T07:24:32.890Z,3076.00
2019-05-07T07:25:32.623Z,3080.00
2019-05-07T07:26:32.760Z,3076.00
2019-05-07T07:27:32.281Z,2992.00
2019-05-07T07:28:32.598Z,2812.00
2019-05-07T07:29:32.418Z,2636.00
2019-05-07T07:30:32.616Z,2576.00
2019-05-07T07:31:31.985Z,2636.00
2019-05-07T07:32:31.824Z,2712.00
2019-05-07T07:33:32.065Z,2732.00
2019-05-07T07:34:33.278Z,2796.00
2019-05-07T07:35:32.176Z,2872.00
2019-05-07T07:36:32.141Z,2900.00
2019-05-07T07:37:32.089Z,2800.00
2019-05-07T07:38:32.831Z,2692.00
2019-05-07T07:39:32.284Z,2612.00
2019-05-07T07:40:32.716Z,2712.00
2019-05-07T07:41:32.677Z,2672.00
2019-05-07T07:42:32.008Z,2744.00
2019-05-07T07:43:32.519Z,2792.00
2019-05-07T07:44:32.989Z,2844.00
2019-05-07T07:45:32.418Z,2888.00
2019-05-07T07:46:32.991Z,2868.00
2019-05-07T07:47:32.947Z,2768.00
2019-05-07T07:48:32.044Z,2612.00
2019-05-07T07:49:32.976Z,2456.00
2019-05-07T07:50:33.039Z,2308.00
2019-05-07T07:51:40.659Z,2128.00
2019-05-07T07:52:32.399Z,1940.00
2019-05-07T07:53:35.127Z,1776.00
2019-05-07T07:54:32.128Z,1688.00
2019-05-07T07:55:33.014Z,1676.00
2019-05-07T07:56:47.903Z,1660.00
2019-05-07T07:57:32.456Z,1604.00
2019-05-07T07:58:32.257Z,1520.00
2019-05-07T07:59:32.887Z,1448.00
2019-05-07T08:00:32.855Z,1436.00
2019-05-07T08:01:33.012Z,1504.00
2019-05-07T08:02:32.190Z,1612.00
2019-05-07T08:03:32.941Z,1732.00
2019-05-07T08:04:32.028Z,1868.00
2019-05-07T08:05:32.547Z,2052.00
2019-05-07T08:06:32.631Z,2260.00
2019-05-07T08:07:33.068Z,2504.00
2019-05-07T08:08:31.969Z,2768.00
2019-05-07T08:09:32.440Z,3072.00
2019-05-07T08:10:32.589Z,3352.00
2019-05-07T08:11:31.930Z,3592.00
2019-05-07T08:12:32.470Z,3788.00
2019-05-07T08:13:32.444Z,3952.00
2019-05-07T08:14:32.473Z,4128.00
2019-05-07T08:15:33.076Z,4272.00
2019-05-07T08:16:32.804Z,4316.00
2019-05-07T08:17:32.675Z,4308.00
2019-05-07T08:18:32.813Z,4196.00
2019-05-07T08:19:32.827Z,4176.00
2019-05-07T08:20:32.689Z,4352.00
2019-05-07T08:21:33.208Z,4752.00
2019-05-07T08:22:32.962Z,5084.00
2019-05-07T08:23:31.928Z,5292.00
2019-05-07T08:24:32.093Z,5292.00
2019-05-07T08:25:32.147Z,5232.00
2019-05-07T08:26:32.352Z,5080.00
2019-05-07T08:27:32.553Z,4780.00
2019-05-07T08:28:32.065Z,4360.00
2019-05-07T08:29:32.619Z,3912.00
2019-05-07T08:30:32.698Z,3496.00
2019-05-07T08:31:32.051Z,3060.00
2019-05-07T08:32:32.680Z,2740.00
2019-05-07T08:33:32.236Z,2504.00
2019-05-07T08:34:32.489Z,2332.00
2019-05-07T08:35:32.683Z,2188.00
2019-05-07T08:36:33.147Z,2060.00
2019-05-07T08:37:32.078Z,1944.00
2019-05-07T08:38:32.751Z,1832.00
2019-05-07T08:39:32.550Z,1784.00
2019-05-07T08:40:32.548Z,1772.00
2019-05-07T08:41:31.960Z,1772.00
2019-05-07T08:42:32.034Z,1760.00
2019-05-07T08:43:32.217Z,1732.00
2019-05-07T08:44:32.523Z,1744.00
2019-05-07T08:45:32.612Z,1780.00
2019-05-07T08:46:32.831Z,1876.00
2019-05-07T08:47:31.919Z,1956.00
2019-05-07T08:48:32.052Z,1968.00
2019-05-07T08:49:36.788Z,1932.00
2019-05-07T08:50:32.666Z,1812.00
2019-05-07T08:51:32.694Z,1684.00
2019-05-07T08:52:32.707Z,1572.00
2019-05-07T08:53:32.783Z,1508.00
2019-05-07T08:54:32.094Z,1508.00
2019-05-07T08:55:32.199Z,1556.00
2019-05-07T08:56:31.865Z,1672.00
2019-05-07T08:57:31.883Z,1884.00
2019-05-07T08:58:31.722Z,2184.00
2019-05-07T08:59:31.919Z,2524.00
2019-05-07T09:00:32.616Z,2868.00
2019-05-07T09:01:32.536Z,3132.00
2019-05-07T09:02:32.612Z,3324.00
2019-05-07T09:03:32.394Z,3496.00
2019-05-07T09:04:32.638Z,3632.00
2019-05-07T09:05:32.399Z,3712.00
2019-05-07T09:06:32.266Z,3828.00
2019-05-07T09:07:32.168Z,4048.00
2019-05-07T09:08:32.137Z,4352.00
2019-05-07T09:09:32.360Z,4640.00
2019-05-07T09:10:32.502Z,4904.00
2019-05-07T09:11:32.072Z,5084.00
2019-05-07T09:12:31.825Z,5272.00
2019-05-07T09:13:32.949Z,5328.00
2019-05-07T09:14:32.018Z,5276.00
2019-05-07T09:15:32.021Z,5220.00
2019-05-07T09:16:31.955Z,5268.00
2019-05-07T09:17:31.832Z,5420.00
2019-05-07T09:18:32.236Z,5528.00
2019-05-07T09:19:32.186Z,5640.00
2019-05-07T09:20:32.177Z,5740.00
2019-05-07T09:21:32.150Z,5820.00
2019-05-07T09:22:32.358Z,5836.00
2019-05-07T09:23:31.852Z,5796.00
2019-05-07T09:24:33.369Z,5736.00
2019-05-07T09:25:32.484Z,5696.00
2019-05-07T09:26:32.345Z,5696.00
2019-05-07T09:27:32.751Z,5696.00
2019-05-07T09:28:32.652Z,5676.00
2019-05-07T09:29:32.347Z,5636.00
2019-05-07T09:30:32.669Z,5612.00
2019-05-07T09:31:32.231Z,5600.00
2019-05-07T09:32:32.685Z,5636.00
2019-05-07T09:33:32.063Z,5748.00
2019-05-07T09:34:32.707Z,5952.00
2019-05-07T09:35:32.059Z,6140.00
2019-05-07T09:36:32.247Z,6256.00
2019-05-07T09:37:32.648Z,6464.00
2019-05-07T09:38:32.756Z,6428.00
2019-05-07T09:39:32.403Z,6316.00
2019-05-07T09:40:32.017Z,6108.00
2019-05-07T09:41:32.756Z,5988.00
2019-05-07T09:42:32.951Z,5840.00
2019-05-07T09:43:32.496Z,5792.00
2019-05-07T09:44:32.506Z,5892.00
2019-05-07T09:45:32.841Z,5752.00
2019-05-07T09:46:32.588Z,5576.00
2019-05-07T09:47:32.499Z,5488.00
2019-05-07T09:48:31.066Z,5488.00
2019-05-07T09:49:32.678Z,5356.00
2019-05-07T09:50:32.556Z,5424.00
2019-05-07T09:51:32.178Z,5632.00
2019-05-07T09:52:32.071Z,6164.00
2019-05-07T09:53:32.147Z,6688.00
2019-05-07T09:54:32.308Z,6628.00
2019-05-07T09:55:32.508Z,6988.00
2019-05-07T09:56:31.999Z,6192.00
2019-05-07T09:57:33.971Z,6108.00
2019-05-07T09:58:36.509Z,6348.00
2019-05-07T09:59:32.478Z,6308.00
2019-05-07T10:00:32.036Z,5596.00
2019-05-07T10:01:31.947Z,4572.00
2019-05-07T10:02:32.085Z,3996.00
2019-05-07T10:03:32.388Z,3704.00
2019-05-07T10:04:32.711Z,3348.00
2019-05-07T10:05:32.156Z,3008.00
2019-05-07T10:06:32.065Z,2760.00
2019-05-07T10:07:32.482Z,2676.00
2019-05-07T10:08:31.807Z,2564.00
2019-05-07T10:09:32.713Z,2412.00
2019-05-07T10:10:32.716Z,2384.00
2019-05-07T10:11:32.938Z,2424.00
2019-05-07T10:12:32.825Z,2532.00
2019-05-07T10:13:32.867Z,2560.00
2019-05-07T10:14:32.972Z,2576.00
2019-05-07T10:15:32.941Z,2576.00
2019-05-07T10:16:30.830Z,2608.00
2019-05-07T10:17:32.624Z,2692.00
2019-05-07T10:18:32.053Z,2824.00
2019-05-07T10:19:32.475Z,2940.00
2019-05-07T10:20:32.724Z,3076.00
2019-05-07T10:21:30.809Z,3292.00
2019-05-07T10:22:32.163Z,3628.00
2019-05-07T10:23:30.805Z,4072.00
2019-05-07T10:24:30.797Z,4588.00
2019-05-07T10:25:32.708Z,4936.00
2019-05-07T10:26:32.123Z,5888.00
2019-05-07T10:27:32.482Z,5124.00
2019-05-07T10:28:32.115Z,5156.00
2019-05-07T10:29:32.266Z,5444.00
2019-05-07T10:30:32.128Z,5868.00
2019-05-07T10:31:32.047Z,5912.00
2019-05-07T10:32:32.219Z,6056.00
2019-05-07T10:33:31.978Z,7816.00
2019-05-07T10:34:30.759Z,18912.00
2019-05-07T10:35:33.556Z,22368.00
2019-05-07T10:36:32.083Z,19296.00
2019-05-07T10:37:31.856Z,18656.00
2019-05-07T10:38:30.772Z,16768.00
2019-05-07T10:39:32.568Z,20000.00
2019-05-07T10:40:32.609Z,14928.00
2019-05-07T10:41:31.904Z,13388.00
2019-05-07T10:42:32.366Z,5248.00
2019-05-07T10:43:32.719Z,9616.00
2019-05-07T10:44:32.148Z,22848.00
2019-05-07T10:45:32.284Z,23360.00
2019-05-07T10:46:31.935Z,25056.00
2019-05-07T10:47:30.734Z,25600.00
2019-05-07T10:48:32.017Z,27008.00
2019-05-07T10:49:31.792Z,25504.00
2019-05-07T10:50:38.755Z,5060.00
2019-05-07T10:51:32.184Z,5508.00
2019-05-07T10:52:31.906Z,3348.00
2019-05-07T10:53:32.072Z,3648.00
2019-05-07T10:54:30.740Z,5224.00
2019-05-07T10:55:32.603Z,26336.00
2019-05-07T10:56:32.495Z,27456.00
2019-05-07T10:57:32.780Z,27328.00
2019-05-07T10:58:32.030Z,26112.00
2019-05-07T10:59:30.770Z,10704.00
2019-05-07T11:00:32.927Z,27200.00
2019-05-07T11:01:32.756Z,25280.00
2019-05-07T11:02:32.472Z,26368.00
2019-05-07T11:03:32.466Z,3944.00
2019-05-07T11:04:40.320Z,5708.00
2019-05-07T11:05:32.679Z,9900.00
2019-05-07T11:06:32.358Z,29760.00
2019-05-07T11:07:32.697Z,30080.00
2019-05-07T11:08:32.732Z,28032.00
2019-05-07T11:09:32.667Z,23936.00
2019-05-07T11:10:32.630Z,29504.00
2019-05-07T11:11:31.912Z,30208.00
2019-05-07T11:12:31.977Z,31776.00
2019-05-07T11:13:30.789Z,6184.00
2019-05-07T11:14:32.130Z,3880.00
2019-05-07T11:15:32.743Z,4404.00
2019-05-07T11:16:32.429Z,4880.00
2019-05-07T11:17:32.676Z,5560.00
2019-05-07T11:18:32.315Z,4356.00
2019-05-07T11:19:32.437Z,4660.00
2019-05-07T11:20:32.073Z,7416.00
2019-05-07T11:21:32.964Z,32032.00
2019-05-07T11:22:32.742Z,35264.00
2019-05-07T11:23:32.767Z,32288.00
2019-05-07T11:24:32.109Z,6708.00
2019-05-07T11:25:30.820Z,24800.00
2019-05-07T11:26:32.831Z,17184.00
2019-05-07T11:27:32.883Z,32704.00
2019-05-07T11:28:32.317Z,6216.00
2019-05-07T11:29:33.077Z,5424.00
2019-05-07T11:30:32.050Z,5556.00
2019-05-07T11:31:32.971Z,5256.00
2019-05-07T11:32:32.118Z,29792.00
2019-05-07T11:33:32.628Z,40800.00
2019-05-07T11:34:32.761Z,37152.00
2019-05-07T11:35:31.914Z,29856.00
2019-05-07T11:36:32.032Z,25056.00
2019-05-07T11:37:30.849Z,4876.00
2019-05-07T11:38:33.161Z,4516.00
2019-05-07T11:39:33.083Z,4524.00
2019-05-07T11:40:32.163Z,4712.00
2019-05-07T11:41:32.094Z,5088.00
2019-05-07T11:42:31.290Z,6024.00
2019-05-07T11:43:32.608Z,7484.00
2019-05-07T11:44:32.069Z,7300.00
2019-05-07T11:45:32.108Z,7256.00
2019-05-07T11:46:32.805Z,6020.00
2019-05-07T11:47:31.854Z,6028.00
2019-05-07T11:48:33.543Z,4436.00
2019-05-07T11:49:32.770Z,4056.00
2019-05-07T11:50:32.839Z,4024.00
2019-05-07T11:51:32.904Z,4372.00
2019-05-07T11:52:35.244Z,4436.00
2019-05-07T11:53:32.674Z,4140.00
2019-05-07T11:54:31.809Z,4172.00
2019-05-07T11:55:31.835Z,4276.00
2019-05-07T11:56:32.771Z,4500.00
2019-05-07T11:57:30.902Z,4416.00
2019-05-07T11:58:32.542Z,4344.00
2019-05-07T11:59:32.604Z,4600.00
2019-05-07T12:00:32.309Z,4940.00
2019-05-07T12:01:43.571Z,5212.00
2019-05-07T12:02:32.050Z,5484.00
2019-05-07T12:03:32.455Z,6028.00
2019-05-07T12:04:32.004Z,5760.00
2019-05-07T12:05:33.035Z,5244.00
2019-05-07T12:06:32.186Z,4844.00
2019-05-07T12:07:32.755Z,4576.00
2019-05-07T12:08:43.069Z,4228.00
2019-05-07T12:09:33.084Z,3840.00
2019-05-07T12:10:32.789Z,3408.00
2019-05-07T12:11:32.220Z,3028.00
2019-05-07T12:12:32.560Z,2816.00
2019-05-07T12:13:32.329Z,2736.00
2019-05-07T12:14:32.504Z,2712.00
2019-05-07T12:15:32.431Z,2692.00
2019-05-07T12:16:32.031Z,2668.00
2019-05-07T12:17:31.674Z,2652.00
2019-05-07T12:18:31.910Z,2664.00
2019-05-07T12:19:32.920Z,2688.00
2019-05-07T12:20:32.400Z,2716.00
2019-05-07T12:21:30.901Z,2768.00
2019-05-07T12:22:30.902Z,2824.00
2019-05-07T12:23:33.062Z,2896.00
2019-05-07T12:24:32.809Z,3052.00
2019-05-07T12:25:32.056Z,3248.00
2019-05-07T12:26:30.902Z,3584.00
2019-05-07T12:27:32.327Z,3948.00
2019-05-07T12:28:32.863Z,4428.00
2019-05-07T12:29:32.240Z,4968.00
2019-05-07T12:30:32.646Z,5364.00
2019-05-07T12:31:30.887Z,5664.00
2019-05-07T12:32:32.347Z,5952.00
2019-05-07T12:33:32.483Z,6608.00
2019-05-07T12:34:31.890Z,7212.00
2019-05-07T12:35:30.993Z,7160.00
2019-05-07T12:36:32.090Z,7200.00
2019-05-07T12:37:32.003Z,6700.00
2019-05-07T12:38:32.357Z,6104.00
2019-05-07T12:39:31.894Z,6328.00
2019-05-07T12:40:32.517Z,5156.00
2019-05-07T12:41:33.223Z,4112.00
2019-05-07T12:42:32.661Z,3404.00
2019-05-07T12:43:31.903Z,2960.00
2019-05-07T12:44:31.977Z,2664.00
2019-05-07T12:45:30.932Z,2444.00
2019-05-07T12:46:33.137Z,2304.00
2019-05-07T12:47:30.874Z,2212.00
2019-05-07T12:48:30.921Z,2176.00
2019-05-07T12:49:32.471Z,2124.00
2019-05-07T12:50:32.301Z,2048.00
2019-05-07T12:51:36.932Z,1952.00
2019-05-07T12:52:32.064Z,1836.00
2019-05-07T12:53:31.942Z,1672.00
2019-05-07T12:54:32.759Z,1540.00
2019-05-07T12:55:32.372Z,1428.00
2019-05-07T12:56:32.052Z,1344.00
2019-05-07T12:57:30.893Z,1264.00
2019-05-07T12:58:32.317Z,1196.00
2019-05-07T12:59:32.234Z,1136.00
2019-05-07T13:00:32.300Z,1088.00
2019-05-07T13:01:32.801Z,1060.00
2019-05-07T13:02:38.196Z,1040.00
2019-05-07T13:03:32.336Z,1040.00
2019-05-07T13:04:32.508Z,1064.00
2019-05-07T13:05:30.845Z,1100.00
2019-05-07T13:06:32.548Z,1144.00
2019-05-07T13:07:32.521Z,1188.00
2019-05-07T13:08:32.742Z,1224.00
2019-05-07T13:09:32.509Z,1268.00
2019-05-07T13:10:32.497Z,1288.00
2019-05-07T13:11:32.563Z,1304.00
2019-05-07T13:12:32.216Z,1332.00
2019-05-07T13:13:32.064Z,1368.00
2019-05-07T13:14:30.818Z,1408.00
2019-05-07T13:15:32.533Z,1456.00
2019-05-07T13:16:32.371Z,1512.00
2019-05-07T13:17:30.834Z,1620.00
2019-05-07T13:18:30.809Z,1732.00
2019-05-07T13:19:32.902Z,1840.00
2019-05-07T13:20:32.042Z,1916.00
2019-05-07T13:21:31.987Z,1944.00
2019-05-07T13:22:32.574Z,1924.00
2019-05-07T13:23:31.805Z,1872.00
2019-05-07T13:24:32.072Z,1784.00
2019-05-07T13:25:32.406Z,1692.00
2019-05-07T13:26:32.189Z,1612.00
2019-05-07T13:27:31.994Z,1560.00
2019-05-07T13:28:30.781Z,1508.00
2019-05-07T13:29:32.604Z,1464.00
2019-05-07T13:30:30.781Z,1428.00
2019-05-07T13:31:32.606Z,1396.00
2019-05-07T13:32:32.026Z,1356.00
2019-05-07T13:33:31.660Z,1308.00
2019-05-07T13:34:33.807Z,1288.00
2019-05-07T13:35:30.797Z,1288.00
2019-05-07T13:36:32.430Z,1280.00
2019-05-07T13:37:32.534Z,1260.00
2019-05-07T13:38:32.331Z,1232.00
2019-05-07T13:39:32.531Z,1216.00
2019-05-07T13:40:31.538Z,1208.00
2019-05-07T13:41:31.876Z,1220.00
2019-05-07T13:42:31.947Z,1220.00
2019-05-07T13:43:30.740Z,1232.00
2019-05-07T13:44:31.892Z,1256.00
2019-05-07T13:45:31.760Z,1296.00
2019-05-07T13:46:30.763Z,1352.00
2019-05-07T13:47:30.751Z,1448.00
2019-05-07T13:48:31.724Z,1596.00
2019-05-07T13:49:32.313Z,1876.00
2019-05-07T13:50:32.556Z,2156.00
2019-05-07T13:51:31.664Z,2484.00
2019-05-07T13:52:32.756Z,2576.00
2019-05-07T13:53:32.254Z,2352.00
2019-05-07T13:54:32.442Z,2308.00
2019-05-07T13:55:32.385Z,2272.00
2019-05-07T13:56:32.584Z,2240.00
2019-05-07T13:57:32.236Z,2268.00
2019-05-07T13:58:32.931Z,2316.00
2019-05-07T13:59:31.738Z,2380.00
2019-05-07T14:00:32.484Z,2432.00
2019-05-07T14:01:32.651Z,2444.00
2019-05-07T14:02:31.781Z,2448.00
2019-05-07T14:03:32.900Z,2516.00